Deadwood, Oregon
Current Conditions -  °F | °C
As of 1:18 AM on Monday 22 Dec 2014 (Local Time) from KEUG Reporting Station
Haze Haze  
Wind Chill: 52°   Ceiling: 2100
Heat Index: 52°   Visibility: 1.5mi
Dew Point: 50°   Wind: 0mph
Humidity: 93%   Direction: NA
Pressure: 30.22"   Gusts: NA
Location:  44.1°N, 123.76°W
Report Text: KEUG 220918Z AUTO 00000KT 1 1/2SM BR OVC021 11/10 A3022 RMK AO2 T01110100 $
Loading
Personal Weather Stations






























Interactive Weather Map New forecast layout! Learn more

10-Day Weather Forecast

Advertisements
Track Severe Weather on mobile